Tiempo atmosférico en la estación meteorológica de Almansa, Albacete (715 m.)



Fecha
DESCASC
Temp. máxima en grados centígrados (hora)
DESCASC
Temp. mínima en grados centígrados (hora)
DESCASC
Temp. media en grados centígrados
DESCASC
Racha de viento máxima en m/sg (hora)
DESCASC
Velocidad máxima media en intervalos de 10 minutos(hora)
DESCASC
Precipitaciones diarias en mm
DESCASC
Precipitaciones de 00:00 a 06:00 en mm
DESCASC
Precipitaciones de 06:00 a 12:00 en mm
DESCASC
Precipitaciones de 12:00 a 18:00 en mm
DESCASC
Precipitaciones de 18:00 a 24:00 en mm
DESCASC
19-04-2018 19.4 (15:20) 4.1 (07:20) 11.7 9.72 (17:50) 4.44 (16:50) 0 0 0 0 0
18-04-2018 23 (16:10) 4.2 (07:40) 13.6 8.06 (19:10) 3.89 (17:50) 0 0 0 0 0
17-04-2018 22.5 (17:40) 5.2 (07:40) 13.8 5.56 (19:10) 3.06 (18:30) 0 0 0 0 0
16-04-2018 15.5 (16:00) 7.8 (06:50) 11.7 14.17 (11:10) 6.67 (10:40) 1.8 1.6 0.2 0 0
15-04-2018 20 (17:20) 3.4 (00:00) 11.7 11.11 (14:00) 5.56 (14:30) 0 0 0 0 0
14-04-2018 17.6 (16:00) 3 (00:00) 10.3 7.78 (14:10) 3.33 (14:20) 0 0 0 0 0
13-04-2018 15 (17:10) 2.7 (00:00) 8.9 6.94 (10:00) 3.33 (10:40) 0.2 0.2 0 0 0
12-04-2018 13.7 (18:10) 5.2 (00:00) 9.4 16.11 (01:10) 7.5 (01:50) 0.4 0 0 0 0.4
11-04-2018 6.8 (22:30) 3 (00:00) 4.9 18.61 (15:40) 8.89 (11:10) 6.2 0 0 3.8 2.4
10-04-2018 12.1 (12:40) 4 (00:00) 8.1 12.5 (13:00) 5.28 (00:30) 10.2 0 0 1.8 8.4
09-04-2018 13 (14:40) 4.3 (00:00) 8.7 13.61 (19:20) 6.67 (19:40) 0 0 0 0 0
08-04-2018 14.2 (15:50) 5.1 (00:00) 9.6 11.94 (16:20) 6.11 (16:10) 0.2 0 0 0.2 0
07-04-2018 14.1 (16:20) 6.5 (00:00) 10.3 11.11 (19:00) 5.83 (19:10) 14 0 0 0 14
06-04-2018 18 (16:20) 6.3 (00:00) 12.2 10.28 (18:20) 3.61 (18:00) 0 0 0 0 0
05-04-2018 21.6 (16:00) 3.1 (00:00) 12.4 6.67 (15:20) 3.33 (01:40) 0 0 0 0 0
04-04-2018 17.1 (16:50) 7.6 (00:00) 12.4 14.44 (11:30) 7.5 (11:20) 0 0 0 0 0
03-04-2018 20.8 (16:50) 5.3 (00:00) 13 10.28 (16:30) 4.72 (11:10) 0 0 0 0 0
02-04-2018 19 (17:10) 3.1 (00:00) 11 5.56 (18:50) 2.22 (17:30) 0 0 0 0 0
01-04-2018 18.1 (16:20) 1.3 (00:00) 9.7 7.22 (15:20) 3.33 (17:20) 0 0 0 0 0
31-03-2018 13.6 (17:00) 3.7 (00:00) 8.7 16.67 (09:20) 7.5 (07:50) 2.2 2 0.2 0 0
30-03-2018 14.1 (14:20) 5.8 (00:00) 10 14.17 (19:20) 7.22 (19:30) 0 0 0 0 0
29-03-2018 19.8 (16:30) 7.2 (00:00) 13.5 9.17 (09:00) 4.72 (21:20) 0 0 0 0 0
28-03-2018 23 (17:30) 8 (00:00) 15.5 10 (12:30) 4.72 (16:40) 0 0 0 0 0
27-03-2018 20.3 (17:00) 4 (00:00) 12.1 11.11 (18:00) 5 (13:10) 0 0 0 0 0
26-03-2018 14.9 (16:10) 1.2 (00:00) 8 10 (20:20) 3.89 (20:10) 0 0 0 0 0
25-03-2018 12.6 (14:50) 4.7 (00:00) 8.7 14.72 (03:00) 7.5 (03:10) 0 0 0 0 0
24-03-2018 9.7 (14:40) 2.2 (00:00) 5.9 19.44 (14:40) 8.89 (14:40) 4.6 4 0 0.4 0.2
23-03-2018 14.4 (13:20) 3.6 (00:00) 9 15.28 (16:10) 8.61 (05:30) 0 0 0 0 0

Gráficas

Temp. máximas Temp. mínimas Temp. medias Precipitaciones Rachas de viento máximas Velocidades máximas media en intervalos de 10 minutos

Datos horarios

Fecha y hora oficial Temperatura (ºC) Velocidad del viento (km/h) Dirección del viento Racha (km/h) Dirección de racha Precipitación (mm) Presión (hPa) Tendencia (hPa) Humedad (%)
2018-04-21 23:00:00 11.5 0 Calma 12 Este 0 -- -- 80
2018-04-21 22:00:00 12.4 3 Este 13 Este 0 -- -- 77
2018-04-21 21:00:00 13.8 5 Este 17 Este 0 -- -- 72
2018-04-21 20:00:00 15.4 5 Este 25 Nordeste 0 -- -- 67
2018-04-21 19:00:00 17.3 10 Este 25 Este 0 -- -- 62
2018-04-21 18:00:00 19 9 Este 23 Este 0 -- -- 57
2018-04-21 17:00:00 19.5 10 Este 24 Nordeste 0 -- -- 55
2018-04-21 16:00:00 19.5 8 Este 20 Este 0 -- -- 56
2018-04-21 15:00:00 17.8 7 Este 24 Sudeste 0 -- -- 61
2018-04-21 14:00:00 17 7 Este 22 Sudeste 0 -- -- 63
2018-04-21 13:00:00 15.6 7 Este 19 Este 0 -- -- 69
2018-04-21 12:00:00 14.4 5 Este 15 Sudeste 0 -- -- 75
2018-04-21 11:00:00 13 4 Este 14 Sudeste 0 -- -- 79
2018-04-21 10:00:00 11.2 3 Este 12 Este 0 -- -- 88
2018-04-21 09:00:00 9.8 3 Este 10 Este 0 -- -- 98
2018-04-21 08:00:00 5.9 0 Calma 5 Sur 0 -- -- 97
2018-04-21 07:00:00 5.1 0 Calma 4 Sur 0 -- -- 95
2018-04-21 06:00:00 4.8 0 Calma 3 Sudoeste 0 -- -- 94
2018-04-21 05:00:00 5.3 0 Calma 3 Oeste 0 -- -- 93
2018-04-21 04:00:00 5.9 0 Calma 3 Sudoeste 0 -- -- 93
2018-04-21 03:00:00 6.9 0 Calma 6 Sur 0 -- -- 91
2018-04-21 02:00:00 7.8 0 Calma 3 Sur 0 -- -- 89
2018-04-21 01:00:00 9.5 0 Calma 7 Sudeste 0 -- -- 88
2018-04-21 00:00:00 10.8 5 Este 22 Este 0 -- -- 87
2018-04-20 23:00:00 11.1 5 Este 16 Este 0 -- -- 88
2018-04-20 22:00:00 11.8 6 Este 17 Este 0 -- -- 83
2018-04-20 21:00:00 12.3 5 Este 22 Nordeste 0 -- -- 81
2018-04-20 20:00:00 13.8 7 Este 31 Nordeste 0 -- -- 72
2018-04-20 19:00:00 14.7 8 Este 33 Este 0 -- -- 67
2018-04-20 18:00:00 15.2 13 Este 33 Este 0 -- -- 69
2018-04-20 17:00:00 16.6 14 Este 33 Este 0 -- -- 62
2018-04-20 16:00:00 17.1 11 Este 32 Este 0 -- -- 62
2018-04-20 15:00:00 16.2 14 Este 33 Este 0 -- -- 65
2018-04-20 14:00:00 15.8 12 Este 33 Este 0 -- -- 68
2018-04-20 13:00:00 14.1 9 Este 23 Este 0 -- -- 76
2018-04-20 12:00:00 13.1 12 Este 30 Este 0 -- -- 78
2018-04-20 11:00:00 12.6 14 Este 28 Nordeste 0 -- -- 80
2018-04-20 10:00:00 11.8 13 Nordeste 24 Nordeste 0 -- -- 86
2018-04-20 09:00:00 11.2 8 Este 17 Este 0 -- -- 89
2018-04-20 08:00:00 10.6 5 Este 15 Este 0 -- -- 91
2018-04-20 07:00:00 10.7 4 Este 21 Sudeste 0 -- -- 89
2018-04-20 06:00:00 10.7 5 Este 17 Este 0 -- -- 90
2018-04-20 05:00:00 10.7 5 Este 15 Este 0 -- -- 89
2018-04-20 04:00:00 10.7 2 Este 12 Nordeste 0 -- -- 89
2018-04-20 03:00:00 10.6 4 Este 8 Nordeste 0 -- -- 89
2018-04-20 02:00:00 10.4 0 Calma 8 Nordeste 0 -- -- 88
2018-04-20 01:00:00 10.5 3 Este 8 Este 0 -- -- 89
2018-04-20 00:00:00 10.2 0 Calma 10 Nordeste 0 -- -- 87
2018-04-19 23:00:00 10.8 3 Este 13 Sudeste 0 -- -- 85
2018-04-19 22:00:00 11.1 4 Este 15 Este 0 -- -- 84
2018-04-19 21:00:00 12.3 4 Este 18 Este 0 -- -- 75
2018-04-19 20:00:00 14.1 10 Este 27 Nordeste 0 -- -- 65
2018-04-19 19:00:00 15.8 13 Nordeste 32 Este 0 -- -- 60
2018-04-19 18:00:00 17.3 14 Este 35 Este 0 -- -- 57
2018-04-19 17:00:00 18.3 15 Este 30 Nordeste 0 -- -- 54
2018-04-19 16:00:00 19.1 14 Este 32 Este 0 -- -- 50
2018-04-19 15:00:00 19.1 14 Nordeste 27 Este 0 -- -- 49
2018-04-19 14:00:00 18.7 11 Este 34 Este 0 -- -- 51
2018-04-19 13:00:00 18.3 11 Este 25 Sudeste 0 -- -- 49
2018-04-19 12:00:00 17 13 Este 28 Nordeste 0 -- -- 54
2018-04-19 11:00:00 15.8 8 Este 22 Este 0 -- -- 58
2018-04-19 10:00:00 13 6 Este 12 Este 0 -- -- 68
2018-04-19 09:00:00 7.1 0 Calma 3 Oeste 0 -- -- 93
2018-04-19 08:00:00 4.3 0 Calma 5 Sudoeste 0 -- -- 92
2018-04-19 07:00:00 4.3 0 Calma 6 Sudoeste 0 -- -- 90
2018-04-19 06:00:00 4.6 2 Sudoeste 6 Sudoeste 0 -- -- 90
2018-04-19 05:00:00 5.1 0 Calma 6 Sudoeste 0 -- -- 87
2018-04-19 04:00:00 5.5 3 Sudoeste 6 Sudoeste 0 -- -- 86
2018-04-19 03:00:00 5.9 0 Calma 6 Sudoeste 0 -- -- 84
2018-04-19 02:00:00 6.5 0 Calma 3 Sudoeste 0 -- -- 83
2018-04-19 01:00:00 7.3 0 Calma 5 Sudoeste 0 -- -- 79
2018-04-19 00:00:00 8.7 0 Calma 4 Sudoeste 0 -- -- 74
2018-04-18 23:00:00 10.8 0 Calma 9 Este 0 -- -- 66
2018-04-18 22:00:00 13 0 Calma 13 Este 0 -- -- 57
2018-04-18 21:00:00 15.3 5 Este 18 Este 0 -- -- 51
2018-04-18 20:00:00 17.5 6 Este 29 Este 0 -- -- 45
2018-04-18 19:00:00 19.9 12 Este 27 Este 0 -- -- 39
2018-04-18 18:00:00 21.7 12 Este 27 Este 0 -- -- 35
2018-04-18 17:00:00 22.9 6 Sudeste 21 Este 0 -- -- 34
2018-04-18 16:00:00 22.9 8 Este 27 Este 0 -- -- 36
2018-04-18 15:00:00 22.4 8 Este 23 Sudeste 0 -- -- 35
2018-04-18 14:00:00 21.9 8 Este 22 Este 0 -- -- 33
2018-04-18 13:00:00 20.9 6 Este 19 Sudeste 0 -- -- 39
2018-04-18 12:00:00 19.8 8 Este 17 Sudeste 0 -- -- 39
2018-04-18 11:00:00 17.4 5 Este 14 Este 0 -- -- 56
2018-04-18 10:00:00 13.6 3 Nordeste 5 Nordeste 0 -- -- 72
2018-04-18 09:00:00 7.9 0 Calma 4 Oeste 0 -- -- 97
2018-04-18 08:00:00 4.3 0 Calma 3 Oeste 0 -- -- 93
2018-04-18 07:00:00 4.7 0 Calma 4 Sur 0 -- -- 92
2018-04-18 06:00:00 5.4 0 Calma 7 Sudoeste 0 -- -- 91
2018-04-18 05:00:00 5.7 0 Calma 6 Sudoeste 0 -- -- 91
2018-04-18 04:00:00 6 0 Calma 5 Sur 0 -- -- 89
2018-04-18 03:00:00 6.8 2 Sudoeste 5 Sudoeste 0 -- -- 88
2018-04-18 02:00:00 7.5 0 Calma 5 Sudoeste 0 -- -- 86
2018-04-18 01:00:00 8.7 0 Calma 5 Sur 0 -- -- 83
2018-04-18 00:00:00 9.8 0 Calma 6 Sudoeste 0 -- -- 80
2018-04-17 23:00:00 11.8 0 Calma 6 Sudoeste 0 -- -- 74
2018-04-17 22:00:00 14.2 0 Calma 11 Sur 0 -- -- 64
2018-04-17 21:00:00 16.1 7 Sur 16 Sudeste 0 -- -- 59
2018-04-17 20:00:00 19.1 5 Este 20 Sur 0 -- -- 51
2018-04-17 19:00:00 21.4 3 Este 19 Sudoeste 0 -- -- 41
2018-04-17 18:00:00 22.5 3 Sudoeste 12 Este 0 -- -- 39
2018-04-17 17:00:00 21.7 3 Este 13 Este 0 -- -- 43
2018-04-17 16:00:00 20.9 3 Nordeste 13 Noroeste 0 -- -- 41
2018-04-17 15:00:00 21.6 3 Nordeste 11 Noroeste 0 -- -- 39
2018-04-17 14:00:00 20.5 5 Sudeste 14 Este 0 -- -- 43
2018-04-17 13:00:00 19 4 Noroeste 14 Noroeste 0 -- -- 44
2018-04-17 12:00:00 17.5 5 Norte 15 Noroeste 0 -- -- 49
2018-04-17 11:00:00 15.6 4 Norte 10 Nordeste 0 -- -- 55
2018-04-17 10:00:00 12.1 2 Oeste 12 Oeste 0 -- -- 68
2018-04-17 09:00:00 8.7 5 Oeste 9 Oeste 0 -- -- 83
2018-04-17 08:00:00 5.3 3 Sudoeste 7 Sudoeste 0 -- -- 90
2018-04-17 07:00:00 6 0 Calma 7 Noroeste 0 -- -- 86
2018-04-17 06:00:00 7.2 0 Calma 12 Oeste 0 -- -- 83
2018-04-17 05:00:00 7.6 5 Oeste 12 Oeste 0 -- -- 82
2018-04-17 04:00:00 7.9 3 Oeste 9 Oeste 0 -- -- 79
2018-04-17 03:00:00 8.7 5 Oeste 14 Oeste 0 -- -- 74
2018-04-17 02:00:00 9.3 3 Oeste 12 Noroeste 0 -- -- 71
2018-04-17 01:00:00 9.3 4 Noroeste 16 Oeste 0 -- -- 72
2018-04-17 00:00:00 11.2 9 Oeste 18 Oeste 0 -- -- 66
2018-04-16 23:00:00 12.1 8 Oeste 21 Oeste 0 -- -- 63
2018-04-16 22:00:00 13.1 10 Oeste 26 Oeste 0 -- -- 59
2018-04-16 21:00:00 13.8 12 Noroeste 26 Noroeste 0 -- -- 55
2018-04-16 20:00:00 14.4 10 Noroeste 26 Noroeste 0 -- -- 53
2018-04-16 19:00:00 15.1 10 Noroeste 33 Oeste 0 -- -- 50
2018-04-16 18:00:00 14.9 13 Noroeste 34 Oeste 0 -- -- 51
2018-04-16 17:00:00 14.9 15 Noroeste 37 Noroeste 0 -- -- 52
2018-04-16 16:00:00 15.5 17 Noroeste 38 Noroeste 0 -- -- 50
2018-04-16 15:00:00 14.1 18 Noroeste 43 Oeste 0 -- -- 54
2018-04-16 14:00:00 13.9 22 Noroeste 51 Noroeste 0 -- -- 55
2018-04-16 13:00:00 12.2 22 Oeste 50 Noroeste 0 -- -- 63
2018-04-16 12:00:00 11 17 Noroeste 51 Oeste 0 -- -- 69
2018-04-16 11:00:00 9.6 19 Oeste 44 Oeste 0 -- -- 73
2018-04-16 10:00:00 9.1 20 Noroeste 45 Oeste 0 -- -- 78
2018-04-16 09:00:00 8.5 18 Oeste 44 Oeste 0 -- -- 82
2018-04-16 08:00:00 8.2 15 Oeste 30 Oeste 0.2 -- -- 81
2018-04-16 07:00:00 7.8 6 Oeste 35 Oeste 0 -- -- 85
2018-04-16 06:00:00 8.1 21 Oeste 47 Oeste 0.2 -- -- 84
2018-04-16 05:00:00 8.5 19 Oeste 46 Noroeste 1.4 -- -- 86
2018-04-16 04:00:00 12 12 Oeste 31 Oeste 0 -- -- 73
2018-04-16 03:00:00 11.2 7 Oeste 18 Oeste 0 -- -- 75
2018-04-16 02:00:00 10.7 4 Oeste 18 Oeste 0 -- -- 79
2018-04-16 01:00:00 11.7 3 Sudoeste 16 Oeste 0 -- -- 77
2018-04-16 00:00:00 12.9 7 Oeste 24 Oeste 0 -- -- 72
2018-04-15 23:00:00 13.2 8 Oeste 25 Oeste 0 -- -- 72
2018-04-15 22:00:00 13.8 12 Oeste 25 Oeste 0 -- -- 69
2018-04-15 21:00:00 15 10 Oeste 22 Oeste 0 -- -- 64
2018-04-15 20:00:00 15.8 10 Oeste 31 Oeste 0 -- -- 61
2018-04-15 19:00:00 17.7 13 Noroeste 33 Oeste 0 -- -- 54
2018-04-15 18:00:00 19.1 14 Noroeste 36 Oeste 0 -- -- 49
2018-04-15 17:00:00 19.9 16 Noroeste 38 Oeste 0 -- -- 44
2018-04-15 16:00:00 19.6 16 Oeste 37 Oeste 0 -- -- 44
2018-04-15 15:00:00 18.8 16 Oeste 40 Oeste 0 -- -- 46
2018-04-15 14:00:00 18 19 Noroeste 40 Oeste 0 -- -- 50
2018-04-15 13:00:00 16.7 14 Noroeste 35 Oeste 0 -- -- 53
2018-04-15 12:00:00 15.1 13 Noroeste 30 Oeste 0 -- -- 63
2018-04-15 11:00:00 13.8 12 Noroeste 31 Oeste 0 -- -- 65
2018-04-15 10:00:00 11.1 9 Oeste 23 Noroeste 0 -- -- 77
2018-04-15 09:00:00 7.8 4 Noroeste 14 Noroeste 0 -- -- 87
2018-04-15 08:00:00 5.5 3 Sur 12 Sur 0 -- -- 90
2018-04-15 07:00:00 5.7 0 Calma 18 Sudoeste 0 -- -- 90
2018-04-15 06:00:00 5.8 7 Oeste 22 Oeste 0 -- -- 91
2018-04-15 05:00:00 5.3 0 Calma 13 Oeste 0 -- -- 93
2018-04-15 04:00:00 4.6 4 Sudoeste 12 Oeste 0 -- -- 96
2018-04-15 03:00:00 3.6 3 Sudoeste 5 Sudoeste 0 -- -- 93
2018-04-15 02:00:00 4.1 2 Sudoeste 5 Sudoeste 0 -- -- 92
2018-04-15 01:00:00 4.7 0 Calma 4 Sur 0 -- -- 91
2018-04-15 00:00:00 5.7 0 Calma 5 Sudoeste 0 -- -- 91
2018-04-14 23:00:00 6.7 0 Calma 4 Sudoeste 0 -- -- 87
2018-04-14 22:00:00 8.2 0 Calma 8 Sudeste 0 -- -- 85
2018-04-14 21:00:00 9.6 3 Este 17 Este 0 -- -- 80
2018-04-14 20:00:00 11.3 9 Este 21 Este 0 -- -- 75
2018-04-14 19:00:00 12.8 8 Este 22 Este 0 -- -- 68
2018-04-14 18:00:00 14.5 8 Este 23 Este 0 -- -- 58
2018-04-14 17:00:00 15.8 9 Este 22 Nordeste 0 -- -- 51
2018-04-14 16:00:00 17.6 9 Norte 26 Nordeste 0 -- -- 42
2018-04-14 15:00:00 15.3 7 Nordeste 28 Nordeste 0 -- -- 54
2018-04-14 14:00:00 15.7 12 Nordeste 28 Norte 0 -- -- 48
2018-04-14 13:00:00 14.9 12 Norte 24 Norte 0 -- -- 52
2018-04-14 12:00:00 12.3 8 Norte 21 Norte 0 -- -- 61
2018-04-14 11:00:00 9.6 7 Norte 18 Norte 0 -- -- 76
2018-04-14 10:00:00 7.9 5 Norte 16 Norte 0 -- -- 84
2018-04-14 09:00:00 6.2 2 Noroeste 5 Noroeste 0 -- -- 92
2018-04-14 08:00:00 5.6 0 Calma 4 Noroeste 0 -- -- 91
2018-04-14 07:00:00 5.9 0 Calma 5 Nordeste 0 -- -- 93
2018-04-14 06:00:00 5.7 3 Este 12 Este 0 -- -- 96
2018-04-14 05:00:00 3 0 Calma 4 Sudoeste 0 -- -- 92
2018-04-14 04:00:00 3.4 0 Calma 3 Oeste 0 -- -- 90
2018-04-14 03:00:00 4.7 0 Calma 5 Sudoeste 0 -- -- 87
2018-04-14 02:00:00 6.2 0 Calma 6 Sudoeste 0 -- -- 84
2018-04-14 01:00:00 7.4 2 Sur 7 Sudoeste 0 -- -- 80
2018-04-14 00:00:00 7.8 0 Calma 9 Sudeste 0 -- -- 76
2018-04-13 23:00:00 8.6 0 Calma 12 Sur 0 -- -- 72
2018-04-13 22:00:00 8.9 5 Sur 12 Sudeste 0 -- -- 71
2018-04-13 21:00:00 10 2 Norte 16 Sur 0 -- -- 67
2018-04-13 20:00:00 11.9 5 Sur 11 Sur 0 -- -- 59
2018-04-13 19:00:00 13.5 4 Sudeste 13 Nordeste 0 -- -- 47
2018-04-13 18:00:00 14.1 5 Este 15 Sudeste 0 -- -- 47
2018-04-13 17:00:00 14.9 5 Este 14 Nordeste 0 -- -- 48
2018-04-13 16:00:00 14.3 3 Noroeste 14 Sudoeste 0 -- -- 51
2018-04-13 15:00:00 12.9 4 Sudoeste 14 Sudoeste 0 -- -- 53
2018-04-13 14:00:00 12.4 4 Noroeste 22 Noroeste 0 -- -- 55
2018-04-13 13:00:00 12.7 9 Noroeste 20 Oeste 0 -- -- 56
2018-04-13 12:00:00 11.1 8 Oeste 22 Oeste 0 -- -- 60
2018-04-13 11:00:00 9.9 9 Oeste 25 Oeste 0 -- -- 69
2018-04-13 10:00:00 7.9 12 Oeste 25 Oeste 0 -- -- 77
2018-04-13 09:00:00 4.9 5 Oeste 14 Oeste 0 -- -- 90
2018-04-13 08:00:00 3.5 6 Oeste 17 Sudoeste 0 -- -- 93
2018-04-13 07:00:00 3.2 4 Oeste 8 Oeste 0 -- -- 92
2018-04-13 06:00:00 4 0 Calma 5 Oeste 0 -- -- 87
2018-04-13 05:00:00 5.9 3 Oeste 17 Oeste 0 -- -- 84
2018-04-13 04:00:00 6.7 9 Oeste 23 Oeste 0 -- -- 82
2018-04-13 03:00:00 7.1 7 Oeste 17 Oeste 0 -- -- 88
2018-04-13 02:00:00 6.9 4 Sudoeste 17 Oeste 0 -- -- 90
2018-04-13 01:00:00 7.2 0 Calma 14 Oeste 0.2 -- -- 90
2018-04-13 00:00:00 7.4 5 Oeste 10 Oeste 0.2 -- -- 90
2018-04-12 23:00:00 7.5 0 Calma 4 Sudoeste 0.2 -- -- 88
2018-04-12 22:00:00 7.9 2 Sudoeste 8 Oeste 0 -- -- 83
2018-04-12 21:00:00 8.8 4 Sudoeste 23 Oeste 0 -- -- 75
2018-04-12 20:00:00 10.9 13 Oeste 31 Oeste 0 -- -- 62
2018-04-12 19:00:00 12.5 8 Oeste 22 Oeste 0 -- -- 56
2018-04-12 18:00:00 13.5 10 Oeste 25 Oeste 0 -- -- 52
2018-04-12 17:00:00 12.8 10 Oeste 28 Oeste 0 -- -- 54
2018-04-12 16:00:00 13.3 10 Noroeste 31 Noroeste 0 -- -- 56
2018-04-12 15:00:00 11.8 11 Oeste 30 Oeste 0 -- -- 58
2018-04-12 14:00:00 11.4 13 Oeste 37 Oeste 0 -- -- 58
2018-04-12 13:00:00 11.2 17 Oeste 40 Noroeste 0 -- -- 61
2018-04-12 12:00:00 8.9 11 Noroeste 32 Noroeste 0 -- -- 70
2018-04-12 11:00:00 8.5 13 Noroeste 32 Oeste 0 -- -- 74
2018-04-12 10:00:00 7.8 14 Noroeste 32 Oeste 0 -- -- 77
2018-04-12 09:00:00 5.9 13 Oeste 41 Oeste 0 -- -- 82
2018-04-12 08:00:00 5.2 16 Oeste 38 Oeste 0 -- -- 82
2018-04-12 07:00:00 5.4 17 Oeste 38 Oeste 0 -- -- 82
2018-04-12 06:00:00 5.8 19 Oeste 42 Oeste 0 -- -- 80
2018-04-12 05:00:00 6.2 19 Oeste 48 Oeste 0 -- -- 77
2018-04-12 04:00:00 6.5 19 Oeste 48 Oeste 0 -- -- 75
2018-04-12 03:00:00 6 20 Oeste 50 Oeste 0 -- -- 76
2018-04-12 02:00:00 6.2 26 Oeste 58 Oeste 0 -- -- 73
2018-04-12 01:00:00 6.3 25 Oeste 52 Oeste 0 -- -- 70
2018-04-12 00:00:00 6.4 24 Oeste 47 Oeste 0 -- -- 70
2018-04-11 23:00:00 6.8 22 Oeste 48 Oeste 0 -- -- 71
2018-04-11 22:00:00 6.6 21 Oeste 50 Oeste 0 -- -- 76
2018-04-11 21:00:00 5.5 24 Oeste 54 Noroeste 0.4 -- -- 83
2018-04-11 20:00:00 5.3 26 Oeste 57 Oeste 0.8 -- -- 88
2018-04-11 19:00:00 4.7 28 Oeste 60 Oeste 1.2 -- -- 89
2018-04-11 18:00:00 4.9 24 Oeste 57 Oeste 0.6 -- -- 89
2018-04-11 17:00:00 4.1 27 Oeste 60 Oeste 0.4 -- -- 90
2018-04-11 16:00:00 4.3 27 Oeste 67 Noroeste 1 -- -- 91
2018-04-11 15:00:00 4.2 26 Oeste 53 Oeste 1.6 -- -- 91
2018-04-11 14:00:00 6.1 25 Oeste 57 Oeste 0.2 -- -- 84
2018-04-11 13:00:00 6.5 28 Oeste 55 Oeste 0 -- -- 74
2018-04-11 12:00:00 6.6 24 Oeste 56 Noroeste 0 -- -- 74
2018-04-11 11:00:00 5.6 28 Oeste 59 Oeste 0 -- -- 75
2018-04-11 10:00:00 4.6 18 Oeste 42 Oeste 0 -- -- 81
2018-04-11 09:00:00 3.6 18 Oeste 40 Oeste 0 -- -- 84
2018-04-11 08:00:00 3.1 19 Oeste 48 Sudoeste 0 -- -- 85
2018-04-11 07:00:00 3.3 21 Oeste 50 Oeste 0 -- -- 85
2018-04-11 06:00:00 3.2 19 Oeste 42 Noroeste 0 -- -- 85
2018-04-11 05:00:00 3.3 21 Oeste 48 Oeste 0 -- -- 86
2018-04-11 04:00:00 3.2 25 Oeste 44 Oeste 0 -- -- 86
2018-04-11 03:00:00 3.3 23 Oeste 49 Oeste 0 -- -- 87
2018-04-11 02:00:00 3.2 16 Oeste 42 Oeste 0 -- -- 89
2018-04-11 01:00:00 3.8 15 Oeste 37 Oeste 0 -- -- 87
2018-04-11 00:00:00 4 9 Oeste 34 Oeste 0.6 -- -- 92
2018-04-10 23:00:00 4.3 12 Oeste 38 Oeste 4 -- -- 92
2018-04-10 22:00:00 7.6 14 Sur 27 Sur 3.2 -- -- 93
2018-04-10 21:00:00 8.1 10 Sur 33 Sur 0.2 -- -- 86
2018-04-10 20:00:00 7.8 6 Sur 30 Sur 0.2 -- -- 84
2018-04-10 19:00:00 8.6 12 Sur 32 Sur 0.2 -- -- 75
2018-04-10 18:00:00 8.2 14 Sur 32 Sur 0.2 -- -- 79
2018-04-10 17:00:00 9 8 Sur 23 Sur 0.2 -- -- 73
2018-04-10 16:00:00 8.1 8 Sur 24 Sudoeste 0.6 -- -- 81
2018-04-10 15:00:00 8.5 8 Sudoeste 28 Oeste 0.8 -- -- 79
2018-04-10 14:00:00 10.9 14 Oeste 36 Oeste 0 -- -- 58
2018-04-10 13:00:00 11.9 17 Oeste 45 Oeste 0 -- -- 52
2018-04-10 12:00:00 11 16 Sudoeste 34 Sudoeste 0 -- -- 55
2018-04-10 11:00:00 10.2 14 Oeste 36 Sudoeste 0 -- -- 59
2018-04-10 10:00:00 8.5 10 Sudoeste 29 Oeste 0 -- -- 67
2018-04-10 09:00:00 6.6 10 Oeste 27 Sudoeste 0 -- -- 76
2018-04-10 08:00:00 4.6 5 Sudoeste 14 Oeste 0 -- -- 82
2018-04-10 07:00:00 4.9 4 Sudoeste 20 Oeste 0 -- -- 82
2018-04-10 06:00:00 5.4 7 Sudoeste 20 Sudoeste 0 -- -- 82
2018-04-10 05:00:00 5.9 8 Sudoeste 22 Oeste 0 -- -- 79
2018-04-10 04:00:00 6.1 5 Sudoeste 23 Oeste 0 -- -- 78
2018-04-10 03:00:00 5.8 10 Oeste 35 Oeste 0 -- -- 81
2018-04-10 02:00:00 5.3 10 Oeste 35 Oeste 0 -- -- 81
2018-04-10 01:00:00 4.3 15 Oeste 37 Oeste 0 -- -- 82
2018-04-10 00:00:00 4.8 18 Oeste 39 Oeste 0 -- -- 78
2018-04-09 23:00:00 4.5 12 Oeste 31 Oeste 0 -- -- 83
2018-04-09 22:00:00 5.1 17 Oeste 36 Oeste 0 -- -- 73
2018-04-09 21:00:00 5.2 16 Oeste 38 Oeste 0 -- -- 75
2018-04-09 20:00:00 8.1 21 Oeste 49 Oeste 0 -- -- 56
2018-04-09 19:00:00 9.8 21 Oeste 42 Oeste 0 -- -- 54
2018-04-09 18:00:00 11 17 Noroeste 42 Noroeste 0 -- -- 52
2018-04-09 17:00:00 11.8 14 Oeste 32 Oeste 0 -- -- 45
2018-04-09 16:00:00 11.4 13 Oeste 33 Oeste 0 -- -- 49
2018-04-09 15:00:00 11.3 11 Oeste 26 Noroeste 0 -- -- 50
2018-04-09 14:00:00 12.1 9 Noroeste 25 Oeste 0 -- -- 48
2018-04-09 13:00:00 11.4 11 Oeste 26 Oeste 0 -- -- 51
2018-04-09 12:00:00 10.9 11 Oeste 30 Noroeste 0 -- -- 54
2018-04-09 11:00:00 10.2 10 Oeste 28 Oeste 0 -- -- 59
2018-04-09 10:00:00 8.1 12 Oeste 30 Oeste 0 -- -- 62
2018-04-09 09:00:00 5.5 13 Oeste 30 Oeste 0 -- -- 71
2018-04-09 08:00:00 5.1 6 Oeste 14 Noroeste 0 -- -- 83
2018-04-09 07:00:00 6.4 8 Oeste 22 Oeste 0 -- -- 80
2018-04-09 06:00:00 6.6 6 Oeste 17 Oeste 0 -- -- 77
2018-04-09 05:00:00 6 6 Oeste 18 Oeste 0 -- -- 82
2018-04-09 04:00:00 5.8 0 Calma 9 Oeste 0 -- -- 84
2018-04-09 03:00:00 5.8 4 Sudoeste 11 Oeste 0 -- -- 83
2018-04-09 02:00:00 6.2 4 Oeste 10 Oeste 0 -- -- 80
2018-04-09 01:00:00 6.8 5 Oeste 19 Sudoeste 0 -- -- 78
2018-04-09 00:00:00 7.1 3 Sur 12 Sudoeste 0 -- -- 76
2018-04-08 23:00:00 7.7 4 Sudoeste 19 Oeste 0 -- -- 75
2018-04-08 22:00:00 8.6 11 Oeste 28 Oeste 0 -- -- 74
2018-04-08 21:00:00 9.3 8 Oeste 28 Noroeste 0 -- -- 70
2018-04-08 20:00:00 11.4 14 Oeste 35 Noroeste 0 -- -- 63
2018-04-08 19:00:00 12.6 18 Oeste 37 Oeste 0 -- -- 57
2018-04-08 18:00:00 12.5 18 Oeste 42 Oeste 0 -- -- 59
2018-04-08 17:00:00 13.6 21 Oeste 43 Oeste 0 -- -- 56
2018-04-08 16:00:00 14.2 17 Noroeste 41 Noroeste 0 -- -- 53
2018-04-08 15:00:00 12.4 16 Oeste 39 Oeste 0 -- -- 58
2018-04-08 14:00:00 11.6 17 Oeste 38 Oeste 0.2 -- -- 66
2018-04-08 13:00:00 12.1 18 Oeste 37 Oeste 0 -- -- 62
2018-04-08 12:00:00 11.2 13 Noroeste 29 Oeste 0 -- -- 72
2018-04-08 11:00:00 9.1 12 Noroeste 26 Noroeste 0 -- -- 77
2018-04-08 10:00:00 8.3 13 Noroeste 27 Noroeste 0 -- -- 80
2018-04-08 09:00:00 6.8 14 Oeste 32 Oeste 0 -- -- 88
2018-04-08 08:00:00 5.6 9 Oeste 20 Noroeste 0 -- -- 91
2018-04-08 07:00:00 5.9 8 Oeste 16 Oeste 0 -- -- 91
2018-04-08 06:00:00 5.8 6 Oeste 22 Oeste 0 -- -- 92
2018-04-08 05:00:00 5.4 8 Oeste 18 Oeste 0 -- -- 94
2018-04-08 04:00:00 5.2 3 Oeste 16 Oeste 0 -- -- 93
2018-04-08 03:00:00 5.2 3 Sudoeste 16 Oeste 0 -- -- 93
2018-04-08 02:00:00 5.9 8 Oeste 19 Oeste 0 -- -- 92
2018-04-08 01:00:00 6.1 9 Oeste 21 Noroeste 0 -- -- 93
2018-04-08 00:00:00 6.5 4 Oeste 14 Oeste 0.2 -- -- 94
2018-04-07 23:00:00 6.5 9 Oeste 22 Oeste 0 -- -- 92
2018-04-07 22:00:00 6.6 6 Noroeste 18 Oeste 0.6 -- -- 94
2018-04-07 21:00:00 6.6 12 Noroeste 32 Noroeste 2.2 -- -- 94
2018-04-07 20:00:00 7.2 12 Noroeste 36 Noroeste 6 -- -- 93
2018-04-07 19:00:00 8.2 19 Oeste 40 Oeste 5 -- -- 90
2018-04-07 18:00:00 11.6 6 Este 18 Este 0 -- -- 86
2018-04-07 17:00:00 13.5 6 Este 21 Sudeste 0 -- -- 79
2018-04-07 16:00:00 13.5 4 Este 12 Nordeste 0 -- -- 77
2018-04-07 15:00:00 12.4 5 Este 13 Este 0 -- -- 83
2018-04-07 14:00:00 12.5 5 Este 14 Sudeste 0 -- -- 82
2018-04-07 13:00:00 10.8 5 Este 18 Este 0 -- -- 89
2018-04-07 12:00:00 10.3 6 Este 15 Sudeste 0 -- -- 89
2018-04-07 11:00:00 9.6 3 Este 12 Este 0 -- -- 94
2018-04-07 10:00:00 9 2 Este 14 Nordeste 0 -- -- 95
2018-04-07 09:00:00 8.6 4 Este 21 Este 0 -- -- 94
2018-04-07 08:00:00 8.6 7 Este 18 Este 0 -- -- 94
2018-04-07 07:00:00 8.6 7 Este 20 Nordeste 0 -- -- 89
2018-04-07 06:00:00 8.5 8 Este 21 Este 0 -- -- 92
2018-04-07 05:00:00 8.8 7 Este 17 Nordeste 0 -- -- 93
2018-04-07 04:00:00 9.3 8 Este 20 Este 0 -- -- 91
2018-04-07 03:00:00 9.2 6 Este 19 Nordeste 0 -- -- 91
2018-04-07 02:00:00 9.5 7 Nordeste 19 Nordeste 0 -- -- 90
2018-04-07 01:00:00 9.6 7 Nordeste 23 Nordeste 0 -- -- 89
2018-04-07 00:00:00 9.8 8 Nordeste 22 Este 0 -- -- 91
2018-04-06 23:00:00 9.8 9 Este 22 Este 0 -- -- 89
2018-04-06 22:00:00 9.7 7 Este 31 Nordeste 0 -- -- 84
2018-04-06 21:00:00 9.9 9 Este 27 Nordeste 0 -- -- 82
2018-04-06 20:00:00 10.8 9 Este 30 Nordeste 0 -- -- 75
2018-04-06 19:00:00 12.1 11 Este 37 Este 0 -- -- 75
2018-04-06 18:00:00 14.7 13 Este 29 Nordeste 0 -- -- 69
2018-04-06 17:00:00 17.3 9 Este 23 Este 0 -- -- 61
2018-04-06 16:00:00 17.4 9 Este 21 Este 0 -- -- 60
2018-04-06 15:00:00 16.8 9 Este 21 Este 0 -- -- 58
2018-04-06 14:00:00 16.9 8 Este 22 Nordeste 0 -- -- 54
2018-04-06 13:00:00 15.6 8 Este 21 Este 0 -- -- 62
2018-04-06 12:00:00 15 8 Este 21 Nordeste 0 -- -- 63
2018-04-06 11:00:00 13 6 Este 16 Este 0 -- -- 69
2018-04-06 10:00:00 10.2 6 Este 14 Sudeste 0 -- -- 77
2018-04-06 09:00:00 7.7 2 Sudeste 6 Este 0 -- -- 84
2018-04-06 08:00:00 7 0 Calma 3 Oeste 0 -- -- 83
2018-04-06 07:00:00 7.9 0 Calma 5 Sudeste 0 -- -- 81
2018-04-06 06:00:00 8.1 2 Este 10 Sudeste 0 -- -- 81
2018-04-06 05:00:00 7.5 0 Calma 8 Sudeste 0 -- -- 74
2018-04-06 04:00:00 6.3 0 Calma 5 Oeste 0 -- -- 74
2018-04-06 03:00:00 6.3 0 Calma 5 Sudoeste 0 -- -- 74
2018-04-06 02:00:00 6.8 0 Calma 7 Sur 0 -- -- 73
2018-04-06 01:00:00 8.2 2 Sur 7 Sur 0 -- -- 69
2018-04-06 00:00:00 9.3 4 Sur 7 Sur 0 -- -- 65
2018-04-05 23:00:00 9.7 3 Sur 7 Sur 0 -- -- 63
2018-04-05 22:00:00 11.3 0 Calma 17 Sudeste 0 -- -- 55
2018-04-05 21:00:00 13.1 6 Sur 19 Sudeste 0 -- -- 50
2018-04-05 20:00:00 16.1 4 Sudeste 18 Sudeste 0 -- -- 43
2018-04-05 19:00:00 18.4 6 Sudeste 20 Sudeste 0 -- -- 36
2018-04-05 18:00:00 20.4 8 Sudeste 24 Sudeste 0 -- -- 34
2018-04-05 17:00:00 21.3 8 Sur 22 Sur 0 -- -- 31
2018-04-05 16:00:00 21.6 9 Sur 24 Sur 0 -- -- 27
2018-04-05 15:00:00 20.8 9 Sudoeste 21 Sudoeste 0 -- -- 29
2018-04-05 14:00:00 19.4 8 Sur 20 Sur 0 -- -- 30
2018-04-05 13:00:00 18 6 Sur 15 Sudeste 0 -- -- 34
2018-04-05 12:00:00 16.2 4 Nordeste 15 Nordeste 0 -- -- 47
2018-04-05 11:00:00 13.4 3 Norte 8 Nordeste 0 -- -- 57
2018-04-05 10:00:00 9.8 2 Nordeste 6 Nordeste 0 -- -- 74
2018-04-05 09:00:00 5.1 2 Sudoeste 8 Sudoeste 0 -- -- 92
2018-04-05 08:00:00 3.2 0 Calma 8 Sudoeste 0 -- -- 88
2018-04-05 07:00:00 4.4 2 Sudoeste 10 Sudoeste 0 -- -- 85
2018-04-05 06:00:00 5.6 3 Oeste 16 Oeste 0 -- -- 82
2018-04-05 05:00:00 6.2 5 Oeste 17 Oeste 0 -- -- 79
2018-04-05 04:00:00 7 8 Oeste 18 Oeste 0 -- -- 75
2018-04-05 03:00:00 7 5 Oeste 13 Sudoeste 0 -- -- 75
2018-04-05 02:00:00 8.6 5 Oeste 19 Oeste 0 -- -- 68
2018-04-05 01:00:00 8.4 4 Oeste 14 Oeste 0 -- -- 67
2018-04-05 00:00:00 10.4 10 Oeste 34 Oeste 0 -- -- 60
2018-04-04 23:00:00 10.9 16 Oeste 30 Noroeste 0 -- -- 59
2018-04-04 22:00:00 11 8 Oeste 19 Oeste 0 -- -- 55
2018-04-04 21:00:00 12.4 9 Oeste 37 Noroeste 0 -- -- 48
2018-04-04 20:00:00 13.8 15 Noroeste 39 Oeste 0 -- -- 47
2018-04-04 19:00:00 15.3 20 Oeste 48 Oeste 0 -- -- 38
2018-04-04 18:00:00 16.4 20 Oeste 41 Oeste 0 -- -- 38
2018-04-04 17:00:00 17.1 20 Oeste 44 Oeste 0 -- -- 36
2018-04-04 16:00:00 15.8 15 Noroeste 44 Oeste 0 -- -- 38
2018-04-04 15:00:00 14.9 16 Noroeste 49 Oeste 0 -- -- 42
2018-04-04 14:00:00 16.1 22 Oeste 47 Noroeste 0 -- -- 40
2018-04-04 13:00:00 14.2 22 Oeste 47 Oeste 0 -- -- 44
2018-04-04 12:00:00 14.2 22 Oeste 52 Oeste 0 -- -- 46
2018-04-04 11:00:00 12.8 23 Oeste 49 Oeste 0 -- -- 51
2018-04-04 10:00:00 11.6 13 Oeste 30 Oeste 0 -- -- 59
2018-04-04 09:00:00 8.8 5 Sudoeste 16 Oeste 0 -- -- 69
2018-04-04 08:00:00 7.8 7 Oeste 20 Sudoeste 0 -- -- 70
2018-04-04 07:00:00 7.7 6 Sudoeste 14 Oeste 0 -- -- 68
2018-04-04 06:00:00 8.6 4 Oeste 24 Oeste 0 -- -- 62
2018-04-04 05:00:00 9.5 10 Oeste 26 Sudoeste 0 -- -- 59
2018-04-04 04:00:00 10.1 13 Oeste 26 Oeste 0 -- -- 57
2018-04-04 03:00:00 11 13 Oeste 24 Oeste 0 -- -- 52
2018-04-04 02:00:00 12 10 Oeste 23 Oeste 0 -- -- 57
2018-04-04 01:00:00 12.3 11 Oeste 22 Oeste 0 -- -- 58
2018-04-04 00:00:00 10.2 4 Oeste 13 Sudoeste 0 -- -- 63
2018-04-03 23:00:00 12 4 Oeste 18 Oeste 0 -- -- 55
2018-04-03 22:00:00 13.7 7 Oeste 15 Oeste 0 -- -- 48
2018-04-03 21:00:00 14.9 6 Oeste 21 Oeste 0 -- -- 48
2018-04-03 20:00:00 16.4 7 Noroeste 24 Oeste 0 -- -- 45
2018-04-03 19:00:00 17.8 10 Oeste 30 Oeste 0 -- -- 42
2018-04-03 18:00:00 20 10 Noroeste 29 Oeste 0 -- -- 39
2018-04-03 17:00:00 20.7 13 Oeste 37 Oeste 0 -- -- 37
2018-04-03 16:00:00 19.8 13 Noroeste 36 Noroeste 0 -- -- 41
2018-04-03 15:00:00 20.2 14 Oeste 34 Oeste 0 -- -- 42
2018-04-03 14:00:00 19.3 9 Oeste 29 Oeste 0 -- -- 45
2018-04-03 13:00:00 18.8 10 Oeste 25 Oeste 0 -- -- 50
2018-04-03 12:00:00 16.4 13 Oeste 33 Oeste 0 -- -- 58
2018-04-03 11:00:00 14.5 13 Oeste 31 Oeste 0 -- -- 64
2018-04-03 10:00:00 12.7 10 Oeste 28 Oeste 0 -- -- 70
2018-04-03 09:00:00 9.8 7 Oeste 18 Oeste 0 -- -- 82
2018-04-03 08:00:00 6.6 6 Oeste 14 Oeste 0 -- -- 90
2018-04-03 07:00:00 5.9 0 Calma 11 Sudoeste 0 -- -- 83
2018-04-03 06:00:00 6.2 3 Oeste 12 Sudoeste 0 -- -- 83
2018-04-03 05:00:00 5.6 3 Sudoeste 9 Sudoeste 0 -- -- 88
2018-04-03 04:00:00 6.3 0 Calma 6 Sudoeste 0 -- -- 85
2018-04-03 03:00:00 6.6 3 Sur 5 Sudoeste 0 -- -- 86
2018-04-03 02:00:00 7.3 0 Calma 7 Sudoeste 0 -- -- 84
2018-04-03 01:00:00 7.4 0 Calma 4 Sudoeste 0 -- -- 81
2018-04-03 00:00:00 8.4 3 Sudoeste 9 Sudoeste 0 -- -- 79
2018-04-02 23:00:00 9.3 0 Calma 3 Sudoeste 0 -- -- 74
2018-04-02 22:00:00 11 0 Calma 9 Este 0 -- -- 66
2018-04-02 21:00:00 12.6 4 Sudeste 16 Este 0 -- -- 62
2018-04-02 20:00:00 14.7 6 Este 16 Nordeste 0 -- -- 58
2018-04-02 19:00:00 16.8 5 Este 20 Sudeste 0 -- -- 52
2018-04-02 18:00:00 18.1 6 Este 18 Sudeste 0 -- -- 49
2018-04-02 17:00:00 18.9 7 Este 19 Este 0 -- -- 46
2018-04-02 16:00:00 17.7 7 Este 15 Nordeste 0 -- -- 45
2018-04-02 15:00:00 16.4 5 Este 13 Nordeste 0 -- -- 50
2018-04-02 14:00:00 15.1 3 Nordeste 12 Nordeste 0 -- -- 56
2018-04-02 13:00:00 13.2 3 Este 9 Sudeste 0 -- -- 65
2018-04-02 12:00:00 11.8 3 Este 11 Noroeste 0 -- -- 61
2018-04-02 11:00:00 9.4 0 Calma 10 Norte 0 -- -- 68
2018-04-02 10:00:00 7.2 0 Calma 5 Sudeste 0 -- -- 81
2018-04-02 09:00:00 4.6 0 Calma 3 Sudoeste 0 -- -- 91
2018-04-02 08:00:00 3.2 0 Calma 3 Sudoeste 0 -- -- 88
2018-04-02 07:00:00 3.6 0 Calma 4 Sudoeste 0 -- -- 85
2018-04-02 06:00:00 3.7 0 Calma 6 Este 0 -- -- 82
2018-04-02 05:00:00 3.4 0 Calma 4 Oeste 0 -- -- 82
2018-04-02 04:00:00 3.3 0 Calma 4 Este 0 -- -- 77
2018-04-02 03:00:00 3.7 0 Calma 8 Sudeste 0 -- -- 74
2018-04-02 02:00:00 3.6 0 Calma 6 Sur 0 -- -- 72
2018-04-02 01:00:00 4.2 0 Calma 7 Sudoeste 0 -- -- 68
2018-04-02 00:00:00 5.4 0 Calma 4 Oeste 0 -- -- 65
2018-04-01 23:00:00 7.6 0 Calma 4 Noroeste 0 -- -- 58
2018-04-01 22:00:00 9.5 0 Calma 11 Sudoeste 0 -- -- 52
2018-04-01 21:00:00 11.3 3 Sur 17 Sur 0 -- -- 47
2018-04-01 20:00:00 13.7 5 Sur 18 Sudeste 0 -- -- 40
2018-04-01 19:00:00 15.8 7 Sudeste 19 Sudeste 0 -- -- 36
2018-04-01 18:00:00 17.1 7 Sur 23 Sur 0 -- -- 35
2018-04-01 17:00:00 17.9 8 Sur 22 Sudeste 0 -- -- 34
2018-04-01 16:00:00 17.8 10 Sur 26 Sudeste 0 -- -- 34
2018-04-01 15:00:00 17.8 8 Sudeste 24 Sur 0 -- -- 34
2018-04-01 14:00:00 16.5 8 Sur 23 Sur 0 -- -- 35
2018-04-01 13:00:00 15 6 Sur 19 Oeste 0 -- -- 39
2018-04-01 12:00:00 13.2 5 Nordeste 13 Nordeste 0 -- -- 50
2018-04-01 11:00:00 11.4 4 Nordeste 15 Este 0 -- -- 57
2018-04-01 10:00:00 7.8 3 Sudoeste 6 Sudoeste 0 -- -- 67
2018-04-01 09:00:00 3.4 2 Noroeste 8 Sur 0 -- -- 84
2018-04-01 08:00:00 1.4 2 Sudoeste 9 Sudoeste 0 -- -- 84
2018-04-01 07:00:00 2 0 Calma 6 Oeste 0 -- -- 81
2018-04-01 06:00:00 3.9 3 Oeste 15 Oeste 0 -- -- 75
2018-04-01 05:00:00 2.9 4 Oeste 12 Oeste 0 -- -- 76
2018-04-01 04:00:00 4.5 4 Oeste 14 Sudoeste 0 -- -- 71
2018-04-01 03:00:00 4.9 5 Oeste 14 Oeste 0 -- -- 67
2018-04-01 02:00:00 5.5 6 Oeste 18 Oeste 0 -- -- 62
2018-04-01 01:00:00 5.3 6 Oeste 17 Oeste 0 -- -- 60
2018-04-01 00:00:00 4.8 4 Sudoeste 12 Sudoeste 0 -- -- 63
2018-03-31 23:00:00 6.8 4 Sudoeste 18 Oeste 0 -- -- 55
2018-03-31 22:00:00 7.9 9 Oeste 16 Oeste 0 -- -- 51
2018-03-31 21:00:00 9.3 9 Oeste 27 Noroeste 0 -- -- 45
2018-03-31 20:00:00 10.8 10 Noroeste 31 Noroeste 0 -- -- 40
2018-03-31 19:00:00 12.4 14 Noroeste 35 Noroeste 0 -- -- 38
2018-03-31 18:00:00 13.2 17 Noroeste 41 Oeste 0 -- -- 36
2018-03-31 17:00:00 13.6 19 Noroeste 54 Oeste 0 -- -- 36
2018-03-31 16:00:00 12.2 18 Noroeste 45 Oeste 0 -- -- 41
2018-03-31 15:00:00 11.4 21 Noroeste 50 Oeste 0 -- -- 47
2018-03-31 14:00:00 10.1 18 Noroeste 49 Noroeste 0 -- -- 56
2018-03-31 13:00:00 8.4 19 Noroeste 45 Noroeste 0 -- -- 58
2018-03-31 12:00:00 7.1 19 Noroeste 51 Noroeste 0 -- -- 63
2018-03-31 11:00:00 6.6 23 Oeste 57 Oeste 0 -- -- 63
2018-03-31 10:00:00 5.9 26 Oeste 60 Noroeste 0 -- -- 66
2018-03-31 09:00:00 4.7 22 Oeste 53 Noroeste 0 -- -- 73
2018-03-31 08:00:00 3.8 24 Oeste 50 Noroeste 0.2 -- -- 76
2018-03-31 07:00:00 3.7 23 Oeste 49 Oeste 0 -- -- 77
2018-03-31 06:00:00 3.8 23 Oeste 48 Oeste 0 -- -- 79
2018-03-31 05:00:00 4 23 Oeste 49 Oeste 0 -- -- 82
2018-03-31 04:00:00 3.8 20 Oeste 43 Noroeste 0 -- -- 87
2018-03-31 03:00:00 4.3 23 Oeste 53 Oeste 2 -- -- 88
2018-03-31 02:00:00 6.1 10 Oeste 26 Oeste 0 -- -- 69
2018-03-31 01:00:00 5.2 10 Oeste 25 Sudoeste 0 -- -- 65
2018-03-31 00:00:00 5.8 8 Oeste 28 Oeste 0 -- -- 57
2018-03-30 23:00:00 6.8 14 Oeste 40 Oeste 0 -- -- 50
2018-03-30 22:00:00 7.1 16 Oeste 37 Oeste 0 -- -- 47
2018-03-30 21:00:00 7.9 19 Oeste 42 Oeste 0 -- -- 43
2018-03-30 20:00:00 9.4 23 Oeste 51 Noroeste 0 -- -- 40
2018-03-30 19:00:00 10.3 24 Oeste 49 Noroeste 0 -- -- 40
2018-03-30 18:00:00 11.2 11 Oeste 46 Oeste 0 -- -- 49
2018-03-30 17:00:00 11.6 17 Oeste 43 Sudoeste 0 -- -- 48
2018-03-30 16:00:00 11.4 18 Oeste 37 Oeste 0 -- -- 56
2018-03-30 15:00:00 13.6 14 Oeste 41 Oeste 0 -- -- 45
2018-03-30 14:00:00 13.9 16 Oeste 38 Noroeste 0 -- -- 44
2018-03-30 13:00:00 12.5 21 Oeste 48 Oeste 0 -- -- 51
2018-03-30 12:00:00 12.2 20 Oeste 44 Oeste 0 -- -- 49
2018-03-30 11:00:00 10.5 19 Oeste 45 Oeste 0 -- -- 55
2018-03-30 10:00:00 8.4 21 Oeste 39 Oeste 0 -- -- 62
2018-03-30 09:00:00 6.3 12 Oeste 36 Oeste 0 -- -- 69
2018-03-30 08:00:00 6.4 14 Oeste 28 Oeste 0 -- -- 67
2018-03-30 07:00:00 6.1 13 Oeste 30 Oeste 0 -- -- 72
2018-03-30 06:00:00 6.1 9 Oeste 22 Oeste 0 -- -- 71
2018-03-30 05:00:00 6.3 4 Oeste 26 Oeste 0 -- -- 70
2018-03-30 04:00:00 6.6 12 Oeste 23 Oeste 0 -- -- 70
2018-03-30 03:00:00 7.2 12 Oeste 30 Oeste 0 -- -- 69
2018-03-30 02:00:00 8.4 12 Oeste 23 Oeste 0 -- -- 69
2018-03-30 01:00:00 8.8 8 Oeste 23 Oeste 0 -- -- 57
2018-03-30 00:00:00 9.5 13 Oeste 23 Oeste 0 -- -- 46
2018-03-29 23:00:00 10.9 13 Oeste 26 Oeste 0 -- -- 38
2018-03-29 22:00:00 12 4 Oeste 32 Oeste 0 -- -- 42
2018-03-29 21:00:00 13.9 13 Oeste 28 Noroeste 0 -- -- 35
2018-03-29 20:00:00 16.3 12 Noroeste 26 Noroeste 0 -- -- 37
2018-03-29 19:00:00 18.6 12 Noroeste 28 Oeste 0 -- -- 34
2018-03-29 18:00:00 19.1 9 Sudoeste 27 Oeste 0 -- -- 38
2018-03-29 17:00:00 18.8 9 Oeste 29 Sudoeste 0 -- -- 43
2018-03-29 16:00:00 18.9 9 Oeste 25 Oeste 0 -- -- 45
2018-03-29 15:00:00 18 10 Oeste 26 Oeste 0 -- -- 47
2018-03-29 14:00:00 17.2 10 Noroeste 31 Noroeste 0 -- -- 50
2018-03-29 13:00:00 14.5 8 Oeste 22 Oeste 0 -- -- 59
2018-03-29 12:00:00 13.5 10 Oeste 22 Oeste 0 -- -- 64
2018-03-29 11:00:00 12.5 11 Oeste 29 Oeste 0 -- -- 66
2018-03-29 10:00:00 11.1 13 Oeste 32 Oeste 0 -- -- 68
2018-03-29 09:00:00 10 15 Oeste 33 Oeste 0 -- -- 69
2018-03-29 08:00:00 7.9 3 Oeste 17 Oeste 0 -- -- 73
2018-03-29 07:00:00 8.2 6 Oeste 17 Oeste 0 -- -- 68
2018-03-29 06:00:00 8.8 4 Noroeste 21 Oeste 0 -- -- 61
2018-03-29 05:00:00 7.9 4 Noroeste 18 Oeste 0 -- -- 59
2018-03-29 04:00:00 8.2 4 Sudoeste 12 Sudoeste 0 -- -- 50
2018-03-29 03:00:00 7.5 0 Calma 7 Sudoeste 0 -- -- 54
2018-03-29 02:00:00 10.6 3 Oeste 17 Oeste 0 -- -- 44
2018-03-29 01:00:00 12.5 10 Oeste 24 Oeste 0 -- -- 38
2018-03-29 00:00:00 13.7 12 Oeste 21 Oeste 0 -- -- 35
2018-03-28 23:00:00 15.2 10 Oeste 24 Oeste 0 -- -- 37
2018-03-28 22:00:00 15.5 8 Oeste 19 Oeste 0 -- -- 40
2018-03-28 21:00:00 17.2 10 Oeste 26 Oeste 0 -- -- 40
2018-03-28 20:00:00 19.9 11 Oeste 30 Oeste 0 -- -- 32
2018-03-28 19:00:00 21.7 10 Noroeste 31 Oeste 0 -- -- 31
2018-03-28 18:00:00 22.7 13 Noroeste 33 Noroeste 0 -- -- 32
2018-03-28 17:00:00 22.6 12 Oeste 33 Noroeste 0 -- -- 33
2018-03-28 16:00:00 22.4 13 Noroeste 31 Oeste 0 -- -- 32
2018-03-28 15:00:00 22 10 Noroeste 28 Oeste 0 -- -- 32
2018-03-28 14:00:00 21.2 12 Oeste 30 Oeste 0 -- -- 29
2018-03-28 13:00:00 20.1 12 Noroeste 36 Oeste 0 -- -- 37
2018-03-28 12:00:00 17.7 15 Oeste 28 Oeste 0 -- -- 44
2018-03-28 11:00:00 15.2 6 Oeste 23 Oeste 0 -- -- 52
2018-03-28 10:00:00 12 11 Oeste 25 Oeste 0 -- -- 62
2018-03-28 09:00:00 9.2 9 Oeste 21 Sudoeste 0 -- -- 70
2018-03-28 08:00:00 8.1 7 Oeste 20 Sudoeste 0 -- -- 74
2018-03-28 07:00:00 8.4 8 Sudoeste 22 Oeste 0 -- -- 73
2018-03-28 06:00:00 8.2 9 Oeste 18 Oeste 0 -- -- 71
2018-03-28 05:00:00 8.6 5 Oeste 21 Oeste 0 -- -- 68
2018-03-28 04:00:00 10.2 10 Oeste 23 Oeste 0 -- -- 63
2018-03-28 03:00:00 10.9 13 Oeste 25 Oeste 0 -- -- 61
2018-03-28 02:00:00 10.5 9 Oeste 18 Sudoeste 0 -- -- 60
2018-03-28 01:00:00 9.8 4 Sudoeste 11 Oeste 0 -- -- 60
2018-03-28 00:00:00 10.9 0 Calma 15 Oeste 0 -- -- 57
2018-03-27 23:00:00 14.1 8 Oeste 32 Oeste 0 -- -- 46
2018-03-27 22:00:00 14.3 9 Oeste 25 Noroeste 0 -- -- 47
2018-03-27 21:00:00 15.4 14 Oeste 29 Oeste 0 -- -- 45
2018-03-27 20:00:00 17.3 12 Oeste 33 Noroeste 0 -- -- 43
2018-03-27 19:00:00 18.7 13 Noroeste 35 Oeste 0 -- -- 40
2018-03-27 18:00:00 19.8 18 Noroeste 40 Oeste 0 -- -- 38
2018-03-27 17:00:00 20.3 13 Noroeste 30 Noroeste 0 -- -- 37
2018-03-27 16:00:00 20.1 11 Noroeste 33 Oeste 0 -- -- 39
2018-03-27 15:00:00 19 11 Noroeste 32 Oeste 0 -- -- 42
2018-03-27 14:00:00 17.5 16 Oeste 36 Oeste 0 -- -- 46
2018-03-27 13:00:00 16 18 Oeste 37 Oeste 0 -- -- 48
2018-03-27 12:00:00 15 14 Noroeste 33 Oeste 0 -- -- 49
2018-03-27 11:00:00 12.9 10 Noroeste 29 Oeste 0 -- -- 52
2018-03-27 10:00:00 9.6 12 Oeste 24 Oeste 0 -- -- 56
2018-03-27 09:00:00 6.5 8 Noroeste 19 Noroeste 0 -- -- 63
2018-03-27 08:00:00 4.7 3 Noroeste 12 Noroeste 0 -- -- 68
2018-03-27 07:00:00 4 0 Calma 10 Oeste 0 -- -- 71
2018-03-27 06:00:00 5.2 6 Oeste 21 Noroeste 0 -- -- 66
2018-03-27 05:00:00 6.1 9 Oeste 19 Oeste 0 -- -- 62
2018-03-27 04:00:00 6 6 Oeste 13 Noroeste 0 -- -- 61
2018-03-27 03:00:00 6.2 5 Oeste 14 Oeste 0 -- -- 61
2018-03-27 02:00:00 6.7 4 Noroeste 27 Noroeste 0 -- -- 59
2018-03-27 01:00:00 7.2 6 Noroeste 15 Oeste 0 -- -- 56
2018-03-27 00:00:00 8.6 6 Oeste 21 Oeste 0 -- -- 50
2018-03-26 23:00:00 9.7 8 Oeste 31 Oeste 0 -- -- 43
2018-03-26 22:00:00 11 12 Noroeste 31 Noroeste 0 -- -- 40
2018-03-26 21:00:00 11.4 9 Noroeste 36 Noroeste 0 -- -- 43
2018-03-26 20:00:00 13 11 Noroeste 31 Noroeste 0 -- -- 41
2018-03-26 19:00:00 13 9 Noroeste 26 Norte 0 -- -- 44
2018-03-26 18:00:00 13.1 10 Norte 22 Noroeste 0 -- -- 42
2018-03-26 17:00:00 13 8 Norte 21 Noroeste 0 -- -- 45
2018-03-26 16:00:00 14.6 10 Noroeste 25 Noroeste 0 -- -- 43
2018-03-26 15:00:00 13.2 8 Noroeste 27 Noroeste 0 -- -- 49
2018-03-26 14:00:00 13.3 8 Noroeste 24 Norte 0 -- -- 46
2018-03-26 13:00:00 12.1 9 Norte 28 Noroeste 0 -- -- 50
2018-03-26 12:00:00 10.6 10 Noroeste 28 Oeste 0 -- -- 52
2018-03-26 11:00:00 8.8 9 Noroeste 31 Oeste 0 -- -- 63
2018-03-26 10:00:00 6.4 7 Noroeste 27 Oeste 0 -- -- 69
2018-03-26 09:00:00 2.6 5 Noroeste 13 Oeste 0 -- -- 84
2018-03-26 08:00:00 2.5 4 Oeste 22 Oeste 0 -- -- 81
2018-03-26 07:00:00 2.5 7 Oeste 21 Oeste 0 -- -- 83
2018-03-26 06:00:00 2.1 6 Oeste 14 Oeste 0 -- -- 85
2018-03-26 05:00:00 1.3 5 Oeste 12 Oeste 0 -- -- 88
2018-03-26 04:00:00 2.4 4 Noroeste 12 Norte 0 -- -- 84
2018-03-26 03:00:00 1.8 0 Calma 6 Norte 0 -- -- 86
2018-03-26 02:00:00 3.1 0 Calma 11 Oeste 0 -- -- 81
2018-03-26 01:00:00 4.3 4 Oeste 12 Oeste 0 -- -- 79
2018-03-26 00:00:00 5.1 4 Noroeste 17 Noroeste 0 -- -- 75
2018-03-25 23:00:00 5.6 4 Noroeste 19 Noroeste 0 -- -- 73
2018-03-25 22:00:00 5 0 Calma 5 Sudoeste 0 -- -- 79
2018-03-25 21:00:00 6.1 0 Calma 26 Norte 0 -- -- 72
2018-03-25 20:00:00 7.5 8 Norte 35 Noroeste 0 -- -- 67
2018-03-25 19:00:00 9.6 11 Noroeste 26 Noroeste 0 -- -- 55
2018-03-25 18:00:00 10.8 10 Noroeste 25 Norte 0 -- -- 51
2018-03-25 17:00:00 10.5 12 Noroeste 28 Noroeste 0 -- -- 51
2018-03-25 16:00:00 11.4 9 Noroeste 28 Oeste 0 -- -- 43
2018-03-25 15:00:00 12.4 13 Noroeste 34 Norte 0 -- -- 46
2018-03-25 14:00:00 11.1 13 Noroeste 30 Noroeste 0 -- -- 47
2018-03-25 13:00:00 8.7 9 Noroeste 33 Noroeste 0 -- -- 58
2018-03-25 12:00:00 8.9 12 Noroeste 30 Oeste 0 -- -- 58
2018-03-25 11:00:00 6.2 8 Noroeste 30 Noroeste 0 -- -- 66
2018-03-25 10:00:00 5.1 8 Noroeste 26 Oeste 0 -- -- 72
2018-03-25 09:00:00 4.8 10 Noroeste 30 Oeste 0 -- -- 75
2018-03-25 08:00:00 4.7 14 Noroeste 36 Noroeste 0 -- -- 77
2018-03-25 07:00:00 5 9 Noroeste 43 Noroeste 0 -- -- 72
2018-03-25 06:00:00 5.1 18 Oeste 36 Oeste 0 -- -- 72
2018-03-25 05:00:00 5.3 6 Oeste 42 Noroeste 0 -- -- 68
2018-03-25 03:00:00 5.9 26 Oeste 53 Oeste 0 -- -- 68
2018-03-25 01:00:00 6.3 23 Oeste 48 Oeste 0 -- -- 66
2018-03-25 00:00:00 6.7 26 Oeste 55 Noroeste 0 -- -- 63
2018-03-24 23:00:00 7 25 Oeste 50 Noroeste 0.2 -- -- 63
2018-03-24 22:00:00 7.4 24 Oeste 54 Oeste 0 -- -- 61
2018-03-24 21:00:00 6.9 13 Noroeste 37 Oeste 0 -- -- 67
2018-03-24 20:00:00 5.5 13 Oeste 51 Oeste 0 -- -- 79
2018-03-24 19:00:00 7.9 20 Noroeste 50 Noroeste 0 -- -- 60
2018-03-24 18:00:00 7.3 18 Noroeste 45 Oeste 0 -- -- 68
2018-03-24 17:00:00 7.6 26 Noroeste 59 Oeste 0.4 -- -- 65
2018-03-24 16:00:00 8.3 23 Noroeste 60 Noroeste 0 -- -- 62
2018-03-24 15:00:00 8.9 25 Noroeste 70 Oeste 0 -- -- 51
2018-03-24 14:00:00 9.5 30 Noroeste 68 Oeste 0 -- -- 49
2018-03-24 13:00:00 7.8 25 Noroeste 58 Noroeste 0 -- -- 58
2018-03-24 12:00:00 7.1 24 Noroeste 60 Noroeste 0 -- -- 57
2018-03-24 11:00:00 7.2 23 Noroeste 53 Oeste 0 -- -- 59
2018-03-24 10:00:00 5.4 27 Noroeste 67 Oeste 0 -- -- 66
2018-03-24 09:00:00 4.2 28 Oeste 54 Oeste 0 -- -- 72
2018-03-24 08:00:00 3.1 18 Noroeste 49 Oeste 0 -- -- 75
2018-03-24 07:00:00 2.4 13 Oeste 40 Noroeste 0 -- -- 85
2018-03-24 06:00:00 3 16 Oeste 49 Noroeste 1.6 -- -- 89
2018-03-24 05:00:00 4.5 19 Noroeste 58 Noroeste 2 -- -- 82
2018-03-24 04:00:00 7.8 7 Oeste 16 Oeste 0.2 -- -- 88
2018-03-24 03:00:00 8 5 Oeste 16 Oeste 0.2 -- -- 86
2018-03-24 02:00:00 8.5 3 Sudoeste 27 Oeste 0 -- -- 79
2018-03-24 01:00:00 9.4 14 Oeste 43 Oeste 0 -- -- 76
2018-03-24 00:00:00 9 12 Oeste 31 Oeste 0 -- -- 76
2018-03-23 23:00:00 9 9 Oeste 26 Oeste 0 -- -- 77
2018-03-23 22:00:00 8.9 15 Oeste 39 Oeste 0 -- -- 76
2018-03-23 21:00:00 8.5 21 Oeste 46 Oeste 0 -- -- 76
2018-03-23 20:00:00 8.6 23 Oeste 44 Oeste 0 -- -- 74
2018-03-23 19:00:00 10.2 18 Oeste 47 Oeste 0 -- -- 67
2018-03-23 18:00:00 11.7 18 Oeste 45 Oeste 0 -- -- 59
2018-03-23 17:00:00 12.6 18 Oeste 55 Oeste 0 -- -- 50
2018-03-23 16:00:00 12.5 21 Noroeste 48 Oeste 0 -- -- 46
2018-03-23 15:00:00 13.6 14 Noroeste 48 Oeste 0 -- -- 43
2018-03-23 14:00:00 13.9 14 Noroeste 44 Noroeste 0 -- -- 43
2018-03-23 13:00:00 13.4 23 Noroeste 51 Noroeste 0 -- -- 41
2018-03-23 12:00:00 11.7 15 Noroeste 41 Noroeste 0 -- -- 43
2018-03-23 11:00:00 9.7 18 Noroeste 41 Oeste 0 -- -- 48
2018-03-23 10:00:00 6.7 19 Noroeste 49 Oeste 0 -- -- 55
2018-03-23 09:00:00 6.3 21 Noroeste 49 Noroeste 0 -- -- 52
2018-03-23 08:00:00 4.4 20 Noroeste 47 Oeste 0 -- -- 57
2018-03-23 07:00:00 4 27 Noroeste 54 Noroeste 0 -- -- 59
2018-03-23 06:00:00 4 27 Oeste 53 Oeste 0 -- -- 61
2018-03-23 05:00:00 4.3 23 Oeste 49 Oeste 0 -- -- 57
2018-03-23 04:00:00 5 23 Noroeste 50 Oeste 0 -- -- 57
2018-03-23 03:00:00 5.1 21 Noroeste 42 Noroeste 0 -- -- 61
2018-03-23 02:00:00 4.9 21 Oeste 38 Oeste 0 -- -- 61
2018-03-23 01:00:00 5.1 16 Oeste 34 Oeste 0 -- -- 51
2018-03-23 00:00:00 5.9 8 Oeste 29 Oeste 0 -- -- 46